createdAt,value
2022-10-07T00:01:53.000Z,51.80
2022-10-07T00:06:51.869Z,51.61
2022-10-07T00:11:51.978Z,52.13
2022-10-07T00:16:50.744Z,52.06
2022-10-07T00:21:49.488Z,51.78
2022-10-07T00:26:48.200Z,51.86
2022-10-07T00:31:48.307Z,51.80
2022-10-07T00:36:50.170Z,51.84
2022-10-07T00:41:51.336Z,52.23
2022-10-07T00:46:52.352Z,52.39
2022-10-07T00:51:53.145Z,52.50
2022-10-07T00:56:53.681Z,52.94
2022-10-07T01:01:53.793Z,53.41
2022-10-07T01:06:52.580Z,52.98
2022-10-07T01:11:59.151Z,53.48
2022-10-07T01:17:06.004Z,53.35
2022-10-07T01:22:17.762Z,53.25
2022-10-07T01:27:20.109Z,53.88
2022-10-07T01:32:27.007Z,53.55
2022-10-07T01:37:29.734Z,53.38
2022-10-07T01:42:30.892Z,53.68
2022-10-07T01:47:30.180Z,53.74
2022-10-07T01:52:45.146Z,54.05
2022-10-07T01:57:54.488Z,54.71
2022-10-07T02:03:26.262Z,54.33
2022-10-07T02:08:33.801Z,54.24
2022-10-07T02:13:39.526Z,54.28
2022-10-07T02:18:45.401Z,54.25
2022-10-07T02:23:47.642Z,54.26
2022-10-07T02:28:50.729Z,54.18
2022-10-07T02:33:53.275Z,54.63
2022-10-07T02:38:53.769Z,54.23
2022-10-07T02:43:59.481Z,54.02
2022-10-07T02:49:00.798Z,54.11
2022-10-07T02:54:03.490Z,54.24
2022-10-07T02:59:07.116Z,54.94
2022-10-07T03:04:07.325Z,54.56
2022-10-07T03:09:07.038Z,55.14
2022-10-07T03:14:07.897Z,55.05
2022-10-07T03:19:07.317Z,54.95
2022-10-07T03:24:14.317Z,54.98
2022-10-07T03:29:18.907Z,54.89
2022-10-07T03:34:18.246Z,54.49
2022-10-07T03:39:19.682Z,54.59
2022-10-07T03:44:22.562Z,54.48
2022-10-07T03:49:22.765Z,54.67
2022-10-07T03:54:21.738Z,54.85
2022-10-07T03:59:22.147Z,55.24
2022-10-07T04:04:22.162Z,55.71
2022-10-07T04:09:21.011Z,55.95
2022-10-07T04:14:26.896Z,56.02
2022-10-07T04:19:28.105Z,55.88
2022-10-07T04:24:27.271Z,55.86
2022-10-07T04:29:28.883Z,61.41
2022-10-07T04:34:27.798Z,58.07
2022-10-07T04:39:42.838Z,57.58
2022-10-07T04:44:47.071Z,57.68
2022-10-07T04:49:46.229Z,57.26
2022-10-07T04:54:45.075Z,57.01
2022-10-07T04:59:43.819Z,57.87
2022-10-07T05:04:50.255Z,58.88
2022-10-07T05:09:49.695Z,58.72
2022-10-07T05:14:48.484Z,58.03
2022-10-07T05:19:50.075Z,58.43
2022-10-07T05:24:48.879Z,57.69
2022-10-07T05:29:47.799Z,57.36
2022-10-07T05:34:46.843Z,57.50
2022-10-07T05:39:47.490Z,57.69
2022-10-07T05:44:50.606Z,57.53
2022-10-07T05:49:51.091Z,58.75
2022-10-07T05:54:51.999Z,59.64
2022-10-07T05:59:52.897Z,58.79
2022-10-07T06:04:53.520Z,60.09
2022-10-07T06:10:11.317Z,61.20
2022-10-07T06:15:12.280Z,61.29
2022-10-07T06:20:15.249Z,62.03
2022-10-07T06:25:16.789Z,61.42
2022-10-07T06:30:17.142Z,62.25
2022-10-07T06:35:16.129Z,61.63
2022-10-07T06:40:16.675Z,61.33
2022-10-07T06:45:15.899Z,61.03
2022-10-07T06:50:15.206Z,62.59
2022-10-07T06:55:17.670Z,61.46
2022-10-07T07:00:16.915Z,61.18
2022-10-07T07:05:17.230Z,62.08
2022-10-07T07:10:19.386Z,61.97
2022-10-07T07:15:23.121Z,76.48
2022-10-07T07:20:22.075Z,63.10
2022-10-07T07:25:22.783Z,61.63
2022-10-07T07:30:24.399Z,61.06
2022-10-07T07:35:25.563Z,59.59
2022-10-07T07:40:26.416Z,58.06
2022-10-07T07:45:26.490Z,57.42
2022-10-07T07:50:27.318Z,56.00
2022-10-07T07:55:29.494Z,55.53
2022-10-07T08:00:28.432Z,54.93
2022-10-07T08:05:36.046Z,54.22
2022-10-07T08:10:37.250Z,53.89
2022-10-07T08:15:36.176Z,53.18
2022-10-07T08:20:36.044Z,52.75
2022-10-07T08:25:37.873Z,52.30
2022-10-07T08:30:38.657Z,52.44
2022-10-07T08:35:37.973Z,51.88
2022-10-07T08:40:38.559Z,52.09
2022-10-07T08:45:37.421Z,50.79
2022-10-07T08:50:47.216Z,49.24
2022-10-07T08:55:51.680Z,47.28
2022-10-07T09:00:56.967Z,44.77
2022-10-07T09:05:57.554Z,42.71
2022-10-07T09:11:15.845Z,41.24
2022-10-07T09:16:19.616Z,39.75
2022-10-07T09:21:23.637Z,38.04
2022-10-07T09:26:24.077Z,36.10
2022-10-07T09:31:26.161Z,35.05
2022-10-07T09:36:26.279Z,33.49
2022-10-07T09:41:32.070Z,31.27
2022-10-07T09:46:37.573Z,30.87
2022-10-07T09:51:36.368Z,29.61
2022-10-07T09:56:39.599Z,28.27
2022-10-07T10:01:41.900Z,28.77
2022-10-07T10:06:47.264Z,27.03
2022-10-07T10:11:47.742Z,27.15
2022-10-07T10:16:47.743Z,26.67
2022-10-07T10:21:53.104Z,27.09
2022-10-07T10:27:07.429Z,26.77
2022-10-07T10:32:25.405Z,26.40
2022-10-07T10:37:34.011Z,24.39
2022-10-07T10:42:48.692Z,25.07
2022-10-07T10:48:03.437Z,24.43
2022-10-07T10:53:15.012Z,25.47
2022-10-07T10:58:28.063Z,26.31
2022-10-07T11:03:51.607Z,25.03
2022-10-07T11:08:52.852Z,27.16
2022-10-07T11:13:57.850Z,26.77
2022-10-07T11:18:59.327Z,27.46
2022-10-07T11:24:04.896Z,28.24
2022-10-07T11:29:13.944Z,26.36
2022-10-07T11:34:18.602Z,25.70
2022-10-07T11:39:17.391Z,24.69
2022-10-07T11:44:23.648Z,23.53
2022-10-07T11:49:29.645Z,23.18
2022-10-07T11:54:32.919Z,22.70
2022-10-07T11:59:46.047Z,21.79
2022-10-07T12:04:44.774Z,21.34
2022-10-07T12:09:57.221Z,22.47
2022-10-07T12:15:04.725Z,22.65
2022-10-07T12:20:45.256Z,22.55
2022-10-07T12:25:47.013Z,23.65
2022-10-07T12:30:53.914Z,22.68
2022-10-07T12:35:54.539Z,22.84
2022-10-07T12:41:03.539Z,22.52
2022-10-07T12:46:07.461Z,22.98
2022-10-07T12:51:13.777Z,22.32
2022-10-07T12:56:21.114Z,23.95
2022-10-07T13:01:32.910Z,24.73
2022-10-07T13:07:03.515Z,25.40
2022-10-07T13:12:14.044Z,24.46
2022-10-07T13:17:30.823Z,23.90
2022-10-07T13:22:31.515Z,24.48
2022-10-07T13:27:34.786Z,24.32
2022-10-07T13:32:36.460Z,25.09
2022-10-07T13:37:37.238Z,25.39
2022-10-07T13:42:38.363Z,24.69
2022-10-07T13:47:38.432Z,24.73
2022-10-07T13:52:40.993Z,24.77
2022-10-07T13:57:44.324Z,24.96
2022-10-07T14:02:45.304Z,25.64
2022-10-07T14:07:44.297Z,25.10
2022-10-07T14:12:46.415Z,24.16
2022-10-07T14:17:49.735Z,24.00
2022-10-07T14:22:51.283Z,24.67
2022-10-07T14:28:07.770Z,24.96
2022-10-07T14:33:31.315Z,24.19
2022-10-07T14:38:30.337Z,24.74
2022-10-07T14:43:31.937Z,25.74
2022-10-07T14:48:32.200Z,25.97
2022-10-07T14:53:31.126Z,25.10
2022-10-07T14:58:29.888Z,24.84
2022-10-07T15:03:29.525Z,25.82
2022-10-07T15:08:30.322Z,26.57
2022-10-07T15:13:29.279Z,27.69
2022-10-07T15:18:27.941Z,27.51
2022-10-07T15:23:28.460Z,28.45
2022-10-07T15:28:29.642Z,29.36
2022-10-07T15:33:28.630Z,29.65
2022-10-07T15:38:27.916Z,30.11
2022-10-07T15:43:28.459Z,31.33
2022-10-07T15:48:28.698Z,32.90
2022-10-07T15:53:27.406Z,33.57
2022-10-07T15:58:30.478Z,35.02
2022-10-07T16:03:33.555Z,35.91
2022-10-07T16:08:33.047Z,35.86
2022-10-07T16:13:36.767Z,36.13
2022-10-07T16:18:37.114Z,36.75
2022-10-07T16:23:37.562Z,36.36
2022-10-07T16:28:57.871Z,37.17
2022-10-07T16:33:57.088Z,37.37
2022-10-07T16:38:59.748Z,37.59
2022-10-07T16:44:01.232Z,37.85
2022-10-07T16:49:00.762Z,38.92
2022-10-07T16:54:02.993Z,39.43
2022-10-07T16:59:06.320Z,39.27
2022-10-07T17:04:05.318Z,39.65
2022-10-07T17:09:05.390Z,40.14
2022-10-07T17:14:07.590Z,40.12
2022-10-07T17:19:07.346Z,40.91
2022-10-07T17:24:06.551Z,41.16
2022-10-07T17:29:08.831Z,41.14
2022-10-07T17:34:08.498Z,41.55
2022-10-07T17:39:07.740Z,41.61
2022-10-07T17:44:10.473Z,41.54
2022-10-07T17:49:11.638Z,41.43
2022-10-07T17:54:12.487Z,41.82
2022-10-07T17:59:12.672Z,41.97
2022-10-07T18:04:14.979Z,42.42
2022-10-07T18:09:18.284Z,42.26
2022-10-07T18:14:36.073Z,42.46
2022-10-07T18:19:35.058Z,42.42
2022-10-07T18:24:33.928Z,42.94
2022-10-07T18:29:36.143Z,42.98
2022-10-07T18:34:34.766Z,42.78
2022-10-07T18:39:33.387Z,43.47
2022-10-07T18:44:33.892Z,43.77
2022-10-07T18:49:32.656Z,43.67
2022-10-07T18:54:31.319Z,44.03
2022-10-07T18:59:30.058Z,44.32
2022-10-07T19:04:31.001Z,44.84
2022-10-07T19:09:30.211Z,44.41
2022-10-07T19:14:32.204Z,44.75
2022-10-07T19:19:34.260Z,45.11
2022-10-07T19:24:46.801Z,45.25
2022-10-07T19:29:45.446Z,45.77
2022-10-07T19:34:45.507Z,45.44
2022-10-07T19:39:44.211Z,45.85
2022-10-07T19:44:43.371Z,45.76
2022-10-07T19:49:42.138Z,46.03
2022-10-07T19:54:45.859Z,46.74
2022-10-07T19:59:49.704Z,46.31
2022-10-07T20:04:49.071Z,46.60
2022-10-07T20:09:49.341Z,46.40
2022-10-07T20:14:48.040Z,47.12
2022-10-07T20:19:46.749Z,47.00
2022-10-07T20:24:45.453Z,47.08
2022-10-07T20:29:58.206Z,46.91
2022-10-07T20:34:56.920Z,47.56
2022-10-07T20:40:12.834Z,47.09
2022-10-07T20:45:12.866Z,47.43
2022-10-07T20:50:11.898Z,47.50
2022-10-07T20:55:14.185Z,48.32
2022-10-07T21:00:17.184Z,48.32
2022-10-07T21:05:16.002Z,48.25
2022-10-07T21:10:14.863Z,48.94
2022-10-07T21:15:15.067Z,49.30
2022-10-07T21:20:13.866Z,49.74
2022-10-07T21:25:13.107Z,50.10
2022-10-07T21:30:12.581Z,50.52
2022-10-07T21:35:12.688Z,51.38
2022-10-07T21:40:11.635Z,51.28
2022-10-07T21:45:11.229Z,51.68
2022-10-07T21:50:11.351Z,51.88
2022-10-07T21:55:11.763Z,51.79
2022-10-07T22:00:12.370Z,52.31
2022-10-07T22:05:11.687Z,52.86
2022-10-07T22:10:12.085Z,52.47
2022-10-07T22:15:12.013Z,52.95
2022-10-07T22:20:11.045Z,52.63
2022-10-07T22:25:11.301Z,53.11
2022-10-07T22:30:11.340Z,53.23
2022-10-07T22:35:30.324Z,52.88
2022-10-07T22:40:30.553Z,52.86
2022-10-07T22:45:29.251Z,53.04
2022-10-07T22:50:27.896Z,52.80
2022-10-07T22:55:27.218Z,52.90
2022-10-07T23:00:27.395Z,52.99
2022-10-07T23:05:26.139Z,53.91
2022-10-07T23:10:24.782Z,53.80
2022-10-07T23:15:23.536Z,53.47
2022-10-07T23:20:25.665Z,53.52
2022-10-07T23:25:26.397Z,53.70
2022-10-07T23:30:25.197Z,54.25
2022-10-07T23:35:25.327Z,54.82
2022-10-07T23:40:24.135Z,55.26
2022-10-07T23:45:22.741Z,55.12
2022-10-07T23:50:22.211Z,54.89
2022-10-07T23:55:22.413Z,55.11
